createdAt,value
2023-03-17T00:04:33.126Z,13.20
2023-03-17T00:09:36.401Z,13.10
2023-03-17T00:14:39.797Z,13.10
2023-03-17T00:19:44.856Z,13.00
2023-03-17T00:24:48.518Z,13.00
2023-03-17T00:29:51.837Z,13.00
2023-03-17T00:34:58.011Z,12.90
2023-03-17T00:40:01.687Z,12.90
2023-03-17T00:45:05.659Z,12.80
2023-03-17T00:50:16.043Z,12.80
2023-03-17T00:55:20.166Z,12.80
2023-03-17T01:00:26.544Z,12.80
2023-03-17T01:05:31.354Z,12.80
2023-03-17T01:10:34.808Z,12.70
2023-03-17T01:15:38.365Z,12.80
2023-03-17T01:20:44.157Z,12.70
2023-03-17T01:25:49.220Z,12.70
2023-03-17T01:30:52.579Z,12.70
2023-03-17T01:35:57.627Z,12.70
2023-03-17T01:41:03.468Z,12.80
2023-03-17T01:46:20.801Z,12.80
2023-03-17T01:51:31.972Z,12.80
2023-03-17T01:56:36.430Z,12.80
2023-03-17T02:01:43.893Z,12.80
2023-03-17T02:06:58.134Z,12.80
2023-03-17T02:12:03.908Z,12.80
2023-03-17T02:17:07.440Z,12.90
2023-03-17T02:22:12.813Z,12.90
2023-03-17T02:27:19.240Z,12.90
2023-03-17T02:32:22.722Z,12.80
2023-03-17T02:37:27.742Z,12.80
2023-03-17T02:42:31.146Z,12.80
2023-03-17T02:47:35.757Z,12.80
2023-03-17T02:52:40.532Z,12.80
2023-03-17T02:57:44.146Z,12.80
2023-03-17T03:02:47.571Z,12.80
2023-03-17T03:07:52.830Z,12.70
2023-03-17T03:12:56.415Z,12.70
2023-03-17T03:17:59.848Z,12.70
2023-03-17T03:23:05.899Z,12.70
2023-03-17T03:28:10.161Z,12.70
2023-03-17T03:33:14.471Z,12.70
2023-03-17T03:38:19.639Z,12.60
2023-03-17T03:43:24.165Z,12.60
2023-03-17T03:48:27.622Z,12.50
2023-03-17T03:53:32.641Z,12.50
2023-03-17T03:58:38.963Z,12.50
2023-03-17T04:03:42.273Z,12.50
2023-03-17T04:08:47.123Z,12.50
2023-03-17T04:13:50.465Z,12.40
2023-03-17T04:18:53.958Z,12.40
2023-03-17T04:23:58.754Z,12.30
2023-03-17T04:29:02.150Z,12.30
2023-03-17T04:34:05.721Z,12.30
2023-03-17T04:39:10.540Z,12.30
2023-03-17T04:44:14.650Z,12.30
2023-03-17T04:49:18.266Z,12.30
2023-03-17T04:54:23.058Z,12.20
2023-03-17T04:59:26.834Z,12.20
2023-03-17T05:04:32.086Z,12.10
2023-03-17T05:09:37.282Z,12.10
2023-03-17T05:14:40.784Z,12.10
2023-03-17T05:19:44.187Z,12.00
2023-03-17T05:24:49.077Z,12.00
2023-03-17T05:29:52.605Z,12.00
2023-03-17T05:34:56.051Z,12.00
2023-03-17T05:40:01.158Z,11.90
2023-03-17T05:45:05.320Z,11.90
2023-03-17T05:50:09.727Z,11.90
2023-03-17T05:55:16.399Z,11.90
2023-03-17T06:00:21.565Z,11.80
2023-03-17T06:05:24.975Z,11.80
2023-03-17T06:10:30.683Z,11.80
2023-03-17T06:15:36.328Z,11.90
2023-03-17T06:20:39.794Z,11.90
2023-03-17T06:25:44.669Z,11.90
2023-03-17T06:30:48.065Z,11.90
2023-03-17T06:35:51.866Z,12.00
2023-03-17T06:40:58.038Z,12.00
2023-03-17T06:46:01.559Z,12.10
2023-03-17T06:51:05.396Z,12.20
2023-03-17T06:56:23.527Z,12.30
2023-03-17T07:01:32.438Z,12.30
2023-03-17T07:06:35.872Z,12.40
2023-03-17T07:11:41.356Z,12.60
2023-03-17T07:16:45.386Z,12.60
2023-03-17T07:21:51.457Z,12.70
2023-03-17T07:26:58.258Z,12.80
2023-03-17T07:32:02.223Z,12.90
2023-03-17T07:37:06.535Z,13.10
2023-03-17T07:42:15.453Z,13.10
2023-03-17T07:47:18.964Z,13.30
2023-03-17T07:52:22.639Z,13.40
2023-03-17T07:57:27.476Z,13.50
2023-03-17T08:02:31.905Z,13.60
2023-03-17T08:07:36.245Z,13.80
2023-03-17T08:12:41.761Z,13.90
2023-03-17T08:17:45.193Z,14.10
2023-03-17T08:22:48.486Z,14.20
2023-03-17T08:27:54.080Z,14.30
2023-03-17T08:32:57.512Z,14.50
2023-03-17T08:38:01.489Z,14.60
2023-03-17T08:43:06.538Z,14.80
2023-03-17T08:48:09.925Z,15.10
2023-03-17T08:53:14.318Z,15.70
2023-03-17T08:58:20.232Z,16.20
2023-03-17T09:03:23.631Z,16.60
2023-03-17T09:08:27.776Z,16.90
2023-03-17T09:13:33.331Z,17.10
2023-03-17T09:18:36.918Z,17.30
2023-03-17T09:23:40.540Z,17.40
2023-03-17T09:28:45.466Z,17.50
2023-03-17T09:33:49.002Z,17.60
2023-03-17T09:38:52.525Z,17.70
2023-03-17T09:44:07.814Z,17.70
2023-03-17T09:49:15.065Z,17.80
2023-03-17T09:54:27.207Z,17.90
2023-03-17T09:59:35.423Z,18.00
2023-03-17T10:04:42.366Z,18.00
2023-03-17T10:09:54.101Z,18.10
2023-03-17T10:15:02.808Z,18.20
2023-03-17T10:20:10.496Z,18.40
2023-03-17T10:25:16.807Z,18.60
2023-03-17T10:30:23.598Z,18.80
2023-03-17T10:35:27.772Z,19.00
2023-03-17T10:40:33.085Z,19.20
2023-03-17T10:51:08.648Z,20.20
2023-03-17T10:56:25.120Z,20.90
2023-03-17T11:01:38.769Z,21.60
2023-03-17T11:06:44.958Z,22.50
2023-03-17T11:11:49.975Z,23.20
2023-03-17T11:16:56.953Z,23.80
2023-03-17T11:22:06.458Z,24.40
2023-03-17T11:27:16.684Z,25.00
2023-03-17T11:32:29.789Z,25.40
2023-03-17T11:37:50.611Z,25.80
2023-03-17T11:43:07.274Z,26.10
2023-03-17T11:48:25.203Z,26.30
2023-03-17T11:53:45.182Z,26.60
2023-03-17T11:58:52.933Z,26.70
2023-03-17T12:04:12.302Z,26.90
2023-03-17T12:09:27.041Z,27.00
2023-03-17T12:14:34.528Z,27.10
2023-03-17T12:19:45.726Z,27.20
2023-03-17T12:24:54.694Z,27.20
2023-03-17T12:30:02.612Z,27.30
2023-03-17T12:35:26.321Z,27.40
2023-03-17T12:40:35.691Z,27.40
2023-03-17T12:46:03.030Z,27.40
2023-03-17T12:51:38.438Z,27.50
2023-03-17T12:56:47.185Z,27.60
2023-03-17T13:01:58.889Z,27.60
2023-03-17T13:07:12.559Z,27.60
2023-03-17T13:12:53.045Z,27.60
2023-03-17T13:18:25.015Z,27.60
2023-03-17T13:23:38.954Z,27.60
2023-03-17T13:28:45.525Z,27.50
2023-03-17T13:33:53.330Z,27.50
2023-03-17T13:44:42.304Z,27.40
2023-03-17T13:49:50.714Z,26.90
2023-03-17T13:55:02.746Z,26.50
2023-03-17T14:00:24.377Z,26.10
2023-03-17T14:05:31.807Z,25.70
2023-03-17T14:10:37.451Z,25.30
2023-03-17T14:15:48.239Z,25.00
2023-03-17T14:20:55.533Z,24.60
2023-03-17T14:26:00.645Z,24.30
2023-03-17T14:31:08.207Z,23.90
2023-03-17T14:36:14.717Z,23.60
2023-03-17T14:41:20.277Z,23.40
2023-03-17T14:46:27.535Z,23.10
2023-03-17T14:51:35.908Z,22.90
2023-03-17T14:56:42.154Z,22.70
2023-03-17T15:01:48.707Z,22.60
2023-03-17T15:06:54.705Z,22.40
2023-03-17T15:12:04.172Z,22.30
2023-03-17T15:17:18.358Z,22.10
2023-03-17T15:22:26.318Z,21.90
2023-03-17T15:27:30.854Z,21.80
2023-03-17T15:32:35.697Z,21.70
2023-03-17T15:37:39.173Z,21.50
2023-03-17T15:42:42.808Z,21.40
2023-03-17T15:47:48.471Z,21.20
2023-03-17T15:52:53.870Z,21.10
2023-03-17T15:57:58.172Z,21.00
2023-03-17T16:03:09.157Z,20.90
2023-03-17T16:08:15.763Z,20.80
2023-03-17T16:13:19.448Z,20.70
2023-03-17T16:18:30.848Z,20.70
2023-03-17T16:23:37.702Z,20.60
2023-03-17T16:28:41.021Z,20.50
2023-03-17T16:33:46.716Z,20.40
2023-03-17T16:38:51.066Z,20.30
2023-03-17T16:43:58.776Z,20.20
2023-03-17T16:49:05.301Z,20.20
2023-03-17T16:54:08.849Z,20.10
2023-03-17T16:59:18.993Z,20.00
2023-03-17T17:04:24.454Z,19.90
2023-03-17T17:09:28.400Z,19.80
2023-03-17T17:14:33.634Z,19.70
2023-03-17T17:19:39.423Z,19.60
2023-03-17T17:24:43.857Z,19.60
2023-03-17T17:29:50.502Z,19.50
2023-03-17T17:34:57.809Z,19.40
2023-03-17T17:40:04.046Z,19.30
2023-03-17T17:45:19.569Z,19.30
2023-03-17T17:50:31.220Z,19.20
2023-03-17T17:55:37.374Z,19.10
2023-03-17T18:00:46.838Z,19.20
2023-03-17T18:05:54.563Z,19.20
2023-03-17T18:11:03.489Z,19.20
2023-03-17T18:16:12.974Z,19.30
2023-03-17T18:21:24.187Z,19.20
2023-03-17T18:26:33.800Z,19.20
2023-03-17T18:31:45.882Z,19.10
2023-03-17T18:36:59.209Z,19.00
2023-03-17T18:42:05.662Z,18.90
2023-03-17T18:47:16.478Z,18.90
2023-03-17T18:52:26.941Z,18.80
2023-03-17T18:57:32.633Z,18.70
2023-03-17T19:02:37.547Z,18.60
2023-03-17T19:07:46.121Z,18.50
2023-03-17T19:12:52.785Z,18.50
2023-03-17T19:18:05.206Z,18.40
2023-03-17T19:23:14.408Z,18.30
2023-03-17T19:28:19.532Z,18.30
2023-03-17T19:33:25.053Z,18.20
2023-03-17T19:38:33.453Z,18.10
2023-03-17T19:43:41.193Z,18.00
2023-03-17T19:48:47.751Z,18.00
2023-03-17T19:53:55.445Z,17.90
2023-03-17T19:59:02.803Z,17.90
2023-03-17T20:04:11.615Z,17.80
2023-03-17T20:09:21.606Z,17.70
2023-03-17T20:14:26.790Z,17.60
2023-03-17T20:19:32.207Z,17.50
2023-03-17T20:24:39.766Z,17.40
2023-03-17T20:29:46.003Z,17.40
2023-03-17T20:34:55.701Z,17.20
2023-03-17T20:40:05.981Z,17.20
2023-03-17T20:45:13.906Z,17.00
2023-03-17T20:50:21.489Z,17.00
2023-03-17T20:55:27.711Z,16.90
2023-03-17T21:00:33.085Z,16.80
2023-03-17T21:05:38.110Z,16.70
2023-03-17T21:10:43.922Z,16.60
2023-03-17T21:15:48.119Z,16.50
2023-03-17T21:20:53.163Z,16.40
2023-03-17T21:25:58.866Z,16.40
2023-03-17T21:31:03.800Z,16.30
2023-03-17T21:36:09.380Z,16.20
2023-03-17T21:41:31.201Z,16.10
2023-03-17T21:46:35.766Z,16.10
2023-03-17T21:51:40.750Z,16.10
2023-03-17T21:56:46.423Z,16.00
2023-03-17T22:01:52.157Z,16.00
2023-03-17T22:06:56.098Z,15.90
2023-03-17T22:12:00.910Z,15.90
2023-03-17T22:17:06.327Z,15.80
2023-03-17T22:22:11.096Z,15.80
2023-03-17T22:27:17.079Z,15.70
2023-03-17T22:32:20.604Z,15.70
2023-03-17T22:37:24.875Z,15.60
2023-03-17T22:42:29.699Z,15.60
2023-03-17T22:47:33.460Z,15.60
2023-03-17T22:52:37.250Z,15.50
2023-03-17T22:57:42.286Z,15.50
2023-03-17T23:02:46.556Z,15.50
2023-03-17T23:07:51.597Z,15.40
2023-03-17T23:12:57.775Z,15.40
2023-03-17T23:18:01.208Z,15.40
2023-03-17T23:23:04.861Z,15.30
2023-03-17T23:28:09.901Z,15.30
2023-03-17T23:33:13.637Z,15.20
2023-03-17T23:38:17.336Z,15.20
2023-03-17T23:43:22.470Z,15.10
2023-03-17T23:48:25.842Z,15.10
2023-03-17T23:53:29.150Z,15.10
2023-03-17T23:58:33.968Z,15.00
